createdAt,value
2018-09-19T00:00:15.702Z,997.85
2018-09-19T00:01:15.630Z,997.86
2018-09-19T00:02:15.623Z,997.81
2018-09-19T00:03:16.460Z,997.84
2018-09-19T00:04:15.603Z,997.92
2018-09-19T00:05:15.640Z,997.97
2018-09-19T00:06:15.583Z,998.01
2018-09-19T00:07:15.574Z,997.98
2018-09-19T00:08:15.557Z,997.95
2018-09-19T00:09:15.594Z,998.01
2018-09-19T00:10:15.538Z,997.95
2018-09-19T00:11:15.523Z,997.97
2018-09-19T00:12:15.518Z,997.99
2018-09-19T00:13:15.508Z,998.00
2018-09-19T00:14:15.500Z,998.00
2018-09-19T00:15:15.514Z,997.98
2018-09-19T00:16:15.473Z,997.93
2018-09-19T00:17:15.469Z,997.98
2018-09-19T00:18:15.450Z,997.99
2018-09-19T00:19:15.442Z,998.05
2018-09-19T00:20:15.475Z,998.04
2018-09-19T00:21:15.455Z,998.05
2018-09-19T00:22:15.396Z,998.07
2018-09-19T00:23:15.389Z,998.10
2018-09-19T00:24:15.377Z,998.08
2018-09-19T00:25:15.377Z,998.08
2018-09-19T00:26:15.367Z,998.09
2018-09-19T00:27:15.378Z,998.10
2018-09-19T00:28:15.357Z,998.06
2018-09-19T00:29:15.318Z,998.09
2018-09-19T00:30:15.311Z,998.08
2018-09-19T00:31:15.297Z,998.08
2018-09-19T00:32:15.290Z,998.07
2018-09-19T00:33:15.314Z,998.07
2018-09-19T00:34:15.280Z,998.03
2018-09-19T00:35:15.257Z,998.06
2018-09-19T00:36:15.249Z,998.07
2018-09-19T00:37:15.235Z,998.06
2018-09-19T00:38:15.241Z,998.09
2018-09-19T00:39:15.414Z,998.17
2018-09-19T00:40:15.213Z,998.15
2018-09-19T00:41:15.215Z,998.11
2018-09-19T00:42:15.183Z,998.11
2018-09-19T00:43:15.176Z,998.15
2018-09-19T00:44:15.174Z,998.12
2018-09-19T00:45:15.182Z,998.12
2018-09-19T00:46:15.162Z,998.15
2018-09-19T00:47:15.184Z,998.16
2018-09-19T00:48:15.123Z,998.15
2018-09-19T00:49:15.101Z,998.17
2018-09-19T00:50:15.099Z,998.15
2018-09-19T00:51:15.115Z,998.22
2018-09-19T00:52:15.108Z,998.21
2018-09-19T00:53:15.078Z,998.21
2018-09-19T00:54:15.052Z,998.18
2018-09-19T00:55:15.054Z,998.21
2018-09-19T00:56:15.068Z,998.21
2018-09-19T00:57:15.052Z,998.21
2018-09-19T00:58:15.005Z,998.19
2018-09-19T00:59:15.006Z,998.21
2018-09-19T01:00:14.978Z,998.29
2018-09-19T01:01:14.972Z,998.22
2018-09-19T01:02:14.962Z,998.22
2018-09-19T01:03:14.988Z,998.23
2018-09-19T01:04:14.938Z,998.18
2018-09-19T01:05:14.926Z,998.23
2018-09-19T01:06:14.911Z,998.20
2018-09-19T01:07:14.960Z,998.30
2018-09-19T01:08:14.911Z,998.27
2018-09-19T01:09:14.916Z,998.29
2018-09-19T01:10:14.863Z,998.27
2018-09-19T01:11:14.859Z,998.25
2018-09-19T01:12:14.876Z,998.30
2018-09-19T01:13:14.834Z,998.27
2018-09-19T01:14:14.859Z,998.26
2018-09-19T01:15:14.860Z,998.27
2018-09-19T01:16:14.807Z,998.34
2018-09-19T01:17:14.801Z,998.35
2018-09-19T01:18:14.784Z,998.36
2018-09-19T01:19:14.762Z,998.42
2018-09-19T01:20:14.759Z,998.46
2018-09-19T01:21:14.814Z,998.50
2018-09-19T01:22:14.737Z,998.48
2018-09-19T01:23:14.724Z,998.47
2018-09-19T01:24:14.720Z,998.50
2018-09-19T01:25:14.753Z,998.54
2018-09-19T01:26:14.707Z,998.57
2018-09-19T01:27:14.720Z,998.62
2018-09-19T01:28:14.671Z,998.62
2018-09-19T01:29:14.679Z,998.60
2018-09-19T01:30:14.666Z,998.65
2018-09-19T01:31:14.662Z,998.61
2018-09-19T01:32:14.649Z,998.57
2018-09-19T01:33:14.655Z,998.59
2018-09-19T01:34:14.609Z,998.65
2018-09-19T01:35:14.598Z,998.63
2018-09-19T01:36:14.587Z,998.62
2018-09-19T01:37:14.566Z,998.59
2018-09-19T01:38:14.563Z,998.58
2018-09-19T01:39:14.583Z,998.55
2018-09-19T01:40:14.536Z,998.54
2018-09-19T01:41:22.066Z,998.58
2018-09-19T01:42:22.058Z,998.52
2018-09-19T01:43:22.049Z,998.56
2018-09-19T01:44:14.484Z,998.56
2018-09-19T01:45:14.506Z,998.60
2018-09-19T01:46:14.463Z,998.57
2018-09-19T01:47:14.454Z,998.58
2018-09-19T01:48:14.450Z,998.56
2018-09-19T01:49:14.446Z,998.58
2018-09-19T01:50:14.433Z,998.55
2018-09-19T01:51:14.473Z,998.53
2018-09-19T01:52:14.404Z,998.52
2018-09-19T01:53:14.393Z,998.57
2018-09-19T01:54:14.390Z,998.55
2018-09-19T01:55:14.367Z,998.58
2018-09-19T01:56:14.358Z,998.56
2018-09-19T01:57:14.400Z,998.55
2018-09-19T01:58:14.346Z,998.58
2018-09-19T01:59:14.330Z,998.57
2018-09-19T02:00:14.313Z,998.57
2018-09-19T02:01:14.306Z,998.56
2018-09-19T02:02:14.285Z,998.58
2018-09-19T02:03:14.366Z,998.62
2018-09-19T02:04:14.265Z,998.60
2018-09-19T02:05:14.257Z,998.58
2018-09-19T02:06:14.237Z,998.61
2018-09-19T02:07:14.228Z,998.59
2018-09-19T02:08:14.231Z,998.60
2018-09-19T02:09:14.251Z,998.65
2018-09-19T02:10:14.206Z,998.67
2018-09-19T02:11:14.187Z,998.73
2018-09-19T02:12:14.178Z,998.73
2018-09-19T02:13:14.155Z,998.67
2018-09-19T02:14:14.146Z,998.67
2018-09-19T02:15:14.347Z,998.66
2018-09-19T02:16:14.126Z,998.66
2018-09-19T02:17:14.112Z,998.70
2018-09-19T02:18:14.108Z,998.66
2018-09-19T02:19:14.093Z,998.69
2018-09-19T02:20:14.081Z,998.60
2018-09-19T02:21:14.109Z,998.62
2018-09-19T02:22:14.065Z,998.66
2018-09-19T02:23:14.064Z,998.64
2018-09-19T02:24:14.035Z,998.63
2018-09-19T02:25:14.034Z,998.65
2018-09-19T02:26:14.023Z,998.60
2018-09-19T02:27:14.050Z,998.66
2018-09-19T02:28:13.992Z,998.66
2018-09-19T02:29:14.001Z,998.61
2018-09-19T02:30:13.990Z,998.67
2018-09-19T02:31:13.967Z,998.66
2018-09-19T02:32:13.959Z,998.68
2018-09-19T02:33:13.976Z,998.67
2018-09-19T02:34:14.027Z,998.71
2018-09-19T02:35:13.920Z,998.73
2018-09-19T02:36:13.903Z,998.72
2018-09-19T02:37:13.896Z,998.70
2018-09-19T02:38:13.899Z,998.77
2018-09-19T02:39:13.907Z,998.81
2018-09-19T02:40:13.873Z,998.74
2018-09-19T02:41:13.841Z,998.79
2018-09-19T02:42:13.840Z,998.74
2018-09-19T02:43:13.865Z,998.78
2018-09-19T02:44:13.807Z,998.74
2018-09-19T02:45:13.891Z,998.75
2018-09-19T02:46:13.821Z,998.77
2018-09-19T02:47:13.788Z,998.77
2018-09-19T02:48:13.773Z,998.79
2018-09-19T02:49:13.771Z,998.75
2018-09-19T02:50:13.757Z,998.76
2018-09-19T02:51:13.765Z,998.71
2018-09-19T02:52:13.715Z,998.72
2018-09-19T02:53:13.767Z,998.71
2018-09-19T02:54:13.702Z,998.65
2018-09-19T02:55:13.696Z,998.67
2018-09-19T02:56:13.700Z,998.64
2018-09-19T02:57:13.703Z,998.64
2018-09-19T02:58:13.657Z,998.70
2018-09-19T02:59:13.663Z,998.67
2018-09-19T03:00:13.637Z,998.64
2018-09-19T03:01:13.631Z,998.68
2018-09-19T03:02:13.603Z,998.64
2018-09-19T03:03:13.709Z,998.65
2018-09-19T03:04:13.581Z,998.63
2018-09-19T03:05:13.585Z,998.61
2018-09-19T03:06:13.555Z,998.62
2018-09-19T03:07:13.558Z,998.58
2018-09-19T03:08:13.531Z,998.54
2018-09-19T03:09:13.597Z,998.56
2018-09-19T03:10:13.518Z,998.48
2018-09-19T03:11:13.530Z,998.43
2018-09-19T03:12:13.494Z,998.50
2018-09-19T03:13:13.476Z,998.52
2018-09-19T03:14:13.503Z,998.61
2018-09-19T03:15:13.532Z,998.55
2018-09-19T03:16:13.452Z,998.55
2018-09-19T03:17:13.461Z,998.55
2018-09-19T03:18:13.437Z,998.59
2018-09-19T03:19:13.410Z,998.54
2018-09-19T03:20:13.425Z,998.58
2018-09-19T03:21:13.439Z,998.61
2018-09-19T03:22:13.398Z,998.59
2018-09-19T03:23:13.362Z,998.62
2018-09-19T03:24:13.356Z,998.62
2018-09-19T03:25:13.353Z,998.63
2018-09-19T03:26:13.334Z,998.66
2018-09-19T03:27:13.381Z,998.65
2018-09-19T03:28:13.308Z,998.60
2018-09-19T03:29:13.285Z,998.56
2018-09-19T03:30:13.288Z,998.60
2018-09-19T03:31:13.288Z,998.59
2018-09-19T03:32:13.262Z,998.60
2018-09-19T03:33:13.282Z,998.61
2018-09-19T03:34:13.243Z,998.64
2018-09-19T03:35:13.274Z,998.61
2018-09-19T03:36:13.224Z,998.65
2018-09-19T03:37:13.200Z,998.57
2018-09-19T03:38:13.206Z,998.55
2018-09-19T03:39:13.215Z,998.52
2018-09-19T03:40:13.161Z,998.55
2018-09-19T03:41:13.157Z,998.53
2018-09-19T03:42:13.138Z,998.53
2018-09-19T03:43:13.135Z,998.52
2018-09-19T03:44:13.119Z,998.48
2018-09-19T03:45:13.131Z,998.49
2018-09-19T03:46:13.089Z,998.49
2018-09-19T03:47:13.110Z,998.48
2018-09-19T03:48:13.074Z,998.47
2018-09-19T03:49:13.055Z,998.49
2018-09-19T03:50:13.053Z,998.49
2018-09-19T03:51:13.083Z,998.47
2018-09-19T03:52:13.040Z,998.46
2018-09-19T03:53:21.858Z,998.50
2018-09-19T03:54:21.827Z,998.50
2018-09-19T03:55:12.987Z,998.50
2018-09-19T03:56:12.980Z,998.46
2018-09-19T03:57:13.006Z,998.47
2018-09-19T03:58:13.058Z,998.52
2018-09-19T03:59:12.941Z,998.50
2018-09-19T04:00:12.930Z,998.53
2018-09-19T04:01:12.970Z,998.55
2018-09-19T04:02:12.951Z,998.55
2018-09-19T04:03:12.937Z,998.55
2018-09-19T04:04:12.889Z,998.54
2018-09-19T04:05:12.902Z,998.57
2018-09-19T04:06:12.875Z,998.60
2018-09-19T04:07:12.856Z,998.55
2018-09-19T04:08:12.870Z,998.50
2018-09-19T04:09:12.874Z,998.53
2018-09-19T04:10:12.816Z,998.52
2018-09-19T04:11:12.817Z,998.47
2018-09-19T04:12:12.798Z,998.48
2018-09-19T04:13:12.786Z,998.45
2018-09-19T04:14:12.790Z,998.45
2018-09-19T04:15:12.814Z,998.49
2018-09-19T04:16:12.762Z,998.52
2018-09-19T04:17:12.740Z,998.49
2018-09-19T04:18:12.740Z,998.58
2018-09-19T04:19:12.713Z,998.55
2018-09-19T04:20:12.703Z,998.57
2018-09-19T04:21:12.733Z,998.61
2018-09-19T04:22:12.688Z,998.62
2018-09-19T04:23:12.678Z,998.63
2018-09-19T04:24:12.671Z,998.64
2018-09-19T04:25:12.709Z,998.65
2018-09-19T04:26:12.655Z,998.67
2018-09-19T04:27:12.660Z,998.69
2018-09-19T04:28:12.636Z,998.68
2018-09-19T04:29:12.611Z,998.75
2018-09-19T04:30:12.626Z,998.80
2018-09-19T04:31:12.596Z,998.77
2018-09-19T04:32:12.600Z,998.82
2018-09-19T04:33:12.610Z,998.78
2018-09-19T04:34:12.571Z,998.79
2018-09-19T04:35:12.541Z,998.77
2018-09-19T04:36:12.533Z,998.76
2018-09-19T04:37:12.575Z,998.72
2018-09-19T04:38:12.512Z,998.72
2018-09-19T04:39:12.532Z,998.74
2018-09-19T04:40:12.493Z,998.72
2018-09-19T04:41:12.476Z,998.77
2018-09-19T04:42:12.461Z,998.75
2018-09-19T04:43:12.476Z,998.67
2018-09-19T04:44:12.436Z,998.75
2018-09-19T04:45:12.542Z,998.70
2018-09-19T04:46:12.414Z,998.73
2018-09-19T04:47:12.416Z,998.73
2018-09-19T04:48:12.400Z,998.68
2018-09-19T04:49:12.379Z,998.69
2018-09-19T04:50:12.376Z,998.66
2018-09-19T04:51:12.423Z,998.66
2018-09-19T04:52:12.345Z,998.67
2018-09-19T04:53:12.347Z,998.70
2018-09-19T04:54:12.326Z,998.69
2018-09-19T04:55:12.319Z,998.65
2018-09-19T04:56:12.303Z,998.66
2018-09-19T04:57:12.341Z,998.63
2018-09-19T04:58:12.281Z,998.62
2018-09-19T04:59:12.263Z,998.57
2018-09-19T05:00:12.289Z,998.59
2018-09-19T05:01:12.249Z,998.59
2018-09-19T05:02:12.243Z,998.56
2018-09-19T05:03:12.255Z,998.58
2018-09-19T05:04:12.215Z,998.59
2018-09-19T05:05:12.201Z,998.57
2018-09-19T05:06:12.188Z,998.61
2018-09-19T05:07:12.193Z,998.63
2018-09-19T05:08:12.158Z,998.68
2018-09-19T05:09:12.197Z,998.66
2018-09-19T05:10:12.154Z,998.66
2018-09-19T05:11:12.127Z,998.66
2018-09-19T05:12:12.112Z,998.69
2018-09-19T05:13:12.106Z,998.70
2018-09-19T05:14:12.130Z,998.64
2018-09-19T05:15:12.123Z,998.72
2018-09-19T05:16:12.085Z,998.68
2018-09-19T05:17:12.164Z,998.73
2018-09-19T05:18:12.048Z,998.76
2018-09-19T05:19:12.038Z,998.81
2018-09-19T05:20:12.057Z,998.80
2018-09-19T05:21:12.072Z,998.77
2018-09-19T05:22:11.995Z,998.85
2018-09-19T05:23:11.995Z,998.79
2018-09-19T05:24:11.996Z,998.86
2018-09-19T05:25:11.975Z,998.86
2018-09-19T05:26:11.952Z,998.86
2018-09-19T05:27:11.981Z,998.89
2018-09-19T05:28:11.947Z,998.82
2018-09-19T05:29:11.928Z,998.88
2018-09-19T05:30:11.924Z,998.84
2018-09-19T05:31:11.907Z,998.89
2018-09-19T05:32:11.893Z,998.82
2018-09-19T05:33:11.915Z,998.85
2018-09-19T05:34:11.884Z,998.88
2018-09-19T05:35:11.855Z,998.88
2018-09-19T05:36:11.876Z,998.86
2018-09-19T05:37:11.848Z,998.86
2018-09-19T05:38:11.816Z,998.82
2018-09-19T05:39:11.924Z,998.79
2018-09-19T05:40:11.836Z,998.81
2018-09-19T05:41:11.792Z,998.81
2018-09-19T05:42:11.803Z,998.80
2018-09-19T05:43:11.768Z,998.75
2018-09-19T05:44:11.759Z,998.76
2018-09-19T05:45:11.804Z,998.76
2018-09-19T05:46:11.731Z,998.76
2018-09-19T05:47:11.726Z,998.74
2018-09-19T05:48:11.716Z,998.71
2018-09-19T05:49:11.700Z,998.68
2018-09-19T05:50:11.691Z,998.73
2018-09-19T05:51:11.738Z,998.69
2018-09-19T05:52:11.658Z,998.74
2018-09-19T05:53:11.647Z,998.74
2018-09-19T05:54:11.656Z,998.71
2018-09-19T05:55:11.618Z,998.70
2018-09-19T05:56:11.622Z,998.70
2018-09-19T05:57:12.142Z,998.70
2018-09-19T05:58:11.591Z,998.70
2018-09-19T05:59:11.583Z,998.76
2018-09-19T06:00:11.583Z,998.75
2018-09-19T06:01:11.562Z,998.76
2018-09-19T06:02:11.639Z,998.76
2018-09-19T06:03:12.325Z,998.76
2018-09-19T06:04:11.521Z,998.68
2018-09-19T06:05:11.515Z,998.76
2018-09-19T06:06:11.509Z,998.71
2018-09-19T06:07:11.538Z,998.71
2018-09-19T06:08:11.494Z,998.71
2018-09-19T06:09:11.566Z,998.73
2018-09-19T06:10:11.469Z,998.73
2018-09-19T06:11:11.440Z,998.72
2018-09-19T06:12:11.433Z,998.78
2018-09-19T06:13:11.432Z,998.79
2018-09-19T06:14:20.310Z,998.83
2018-09-19T06:15:11.392Z,998.81
2018-09-19T06:16:18.931Z,998.83
2018-09-19T06:17:19.934Z,998.75
2018-09-19T06:18:18.949Z,998.75
2018-09-19T06:19:11.345Z,998.75
2018-09-19T06:20:11.372Z,998.71
2018-09-19T06:21:11.335Z,998.65
2018-09-19T06:22:11.310Z,998.65
2018-09-19T06:23:11.308Z,998.64
2018-09-19T06:24:11.295Z,998.61
2018-09-19T06:25:11.429Z,998.60
2018-09-19T06:26:11.302Z,998.60
2018-09-19T06:27:11.267Z,998.60
2018-09-19T06:28:11.326Z,998.55
2018-09-19T06:29:11.238Z,998.57
2018-09-19T06:30:11.229Z,998.58
2018-09-19T06:31:11.222Z,998.59
2018-09-19T06:32:11.253Z,998.63
2018-09-19T06:33:11.353Z,998.61
2018-09-19T06:34:11.268Z,998.65
2018-09-19T06:35:11.167Z,998.60
2018-09-19T06:36:11.160Z,998.58
2018-09-19T06:37:11.214Z,998.60
2018-09-19T06:38:11.178Z,998.63
2018-09-19T06:39:11.147Z,998.56
2018-09-19T06:40:11.226Z,998.58
2018-09-19T06:41:11.129Z,998.67
2018-09-19T06:42:11.144Z,998.63
2018-09-19T06:43:11.096Z,998.69
2018-09-19T06:44:11.106Z,998.68
2018-09-19T06:45:11.106Z,998.67
2018-09-19T06:46:11.057Z,998.67
2018-09-19T06:47:11.044Z,998.61
2018-09-19T06:48:11.044Z,998.63
2018-09-19T06:49:11.022Z,998.65
2018-09-19T06:50:11.048Z,998.63
2018-09-19T06:51:10.996Z,998.60
2018-09-19T06:52:10.997Z,998.58
2018-09-19T06:53:10.974Z,998.59
2018-09-19T06:54:10.976Z,998.58
2018-09-19T06:55:10.950Z,998.61
2018-09-19T06:56:10.981Z,998.60
2018-09-19T06:57:10.934Z,998.63
2018-09-19T06:58:10.919Z,998.69
2018-09-19T06:59:10.903Z,998.72
2018-09-19T07:00:10.892Z,998.71
2018-09-19T07:01:10.890Z,998.66
2018-09-19T07:02:10.946Z,998.65
2018-09-19T07:03:10.861Z,998.68
2018-09-19T07:04:10.854Z,998.61
2018-09-19T07:05:10.851Z,998.67
2018-09-19T07:06:10.832Z,998.66
2018-09-19T07:07:10.827Z,998.64
2018-09-19T07:08:10.846Z,998.64
2018-09-19T07:09:10.793Z,998.68
2018-09-19T07:10:10.798Z,998.70
2018-09-19T07:11:10.820Z,998.70
2018-09-19T07:12:10.779Z,998.70
2018-09-19T07:13:10.746Z,998.70
2018-09-19T07:14:10.784Z,998.75
2018-09-19T07:15:10.737Z,998.74
2018-09-19T07:16:10.753Z,998.75
2018-09-19T07:17:10.717Z,998.71
2018-09-19T07:18:10.695Z,998.71
2018-09-19T07:19:10.688Z,998.73
2018-09-19T07:20:10.762Z,998.70
2018-09-19T07:21:10.660Z,998.71
2018-09-19T07:22:10.667Z,998.72
2018-09-19T07:23:10.661Z,998.71
2018-09-19T07:24:10.682Z,998.73
2018-09-19T07:25:10.733Z,998.72
2018-09-19T07:26:10.644Z,998.73
2018-09-19T07:27:10.602Z,998.72
2018-09-19T07:28:10.580Z,998.76
2018-09-19T07:29:10.605Z,998.79
2018-09-19T07:30:10.569Z,998.81
2018-09-19T07:31:10.600Z,998.83
2018-09-19T07:32:10.657Z,998.87
2018-09-19T07:33:10.539Z,998.87
2018-09-19T07:34:10.515Z,998.85
2018-09-19T07:35:10.528Z,998.83
2018-09-19T07:36:10.488Z,998.74
2018-09-19T07:37:10.485Z,998.72
2018-09-19T07:38:10.532Z,998.70
2018-09-19T07:39:10.463Z,998.68
2018-09-19T07:40:10.533Z,998.65
2018-09-19T07:41:10.438Z,998.66
2018-09-19T07:42:10.432Z,998.64
2018-09-19T07:43:10.410Z,998.67
2018-09-19T07:44:10.429Z,998.64
2018-09-19T07:45:10.404Z,998.68
2018-09-19T07:46:10.379Z,998.65
2018-09-19T07:47:10.381Z,998.66
2018-09-19T07:48:10.366Z,998.62
2018-09-19T07:49:10.406Z,998.62
2018-09-19T07:50:10.409Z,998.70
2018-09-19T07:51:10.346Z,998.75
2018-09-19T07:52:10.317Z,998.78
2018-09-19T07:53:10.307Z,998.77
2018-09-19T07:54:10.298Z,998.78
2018-09-19T07:55:10.348Z,998.82
2018-09-19T07:56:10.294Z,998.82
2018-09-19T07:57:10.296Z,998.80
2018-09-19T07:58:10.259Z,998.84
2018-09-19T07:59:10.282Z,998.90
2018-09-19T08:00:10.223Z,998.89
2018-09-19T08:01:10.279Z,998.96
2018-09-19T08:02:10.232Z,998.96
2018-09-19T08:03:10.195Z,998.94
2018-09-19T08:04:10.235Z,999.02
2018-09-19T08:05:10.176Z,998.97
2018-09-19T08:06:10.157Z,999.03
2018-09-19T08:07:10.169Z,999.00
2018-09-19T08:08:10.209Z,998.96
2018-09-19T08:09:10.229Z,998.96
2018-09-19T08:10:10.113Z,998.96
2018-09-19T08:11:10.118Z,998.99
2018-09-19T08:12:10.088Z,998.99
2018-09-19T08:13:10.113Z,998.94
2018-09-19T08:14:10.106Z,998.98
2018-09-19T08:15:10.069Z,999.01
2018-09-19T08:16:10.097Z,998.94
2018-09-19T08:17:10.037Z,998.98
2018-09-19T08:18:10.038Z,999.00
2018-09-19T08:19:10.024Z,999.02
2018-09-19T08:20:10.040Z,999.03
2018-09-19T08:21:10.000Z,999.06
2018-09-19T08:22:09.983Z,999.04
2018-09-19T08:23:09.968Z,999.05
2018-09-19T08:24:09.959Z,999.00
2018-09-19T08:25:09.996Z,999.05
2018-09-19T08:26:09.986Z,999.05
2018-09-19T08:27:09.926Z,999.11
2018-09-19T08:28:09.915Z,999.09
2018-09-19T08:29:09.916Z,999.10
2018-09-19T08:30:09.902Z,999.10
2018-09-19T08:31:09.914Z,999.09
2018-09-19T08:32:09.903Z,999.12
2018-09-19T08:33:09.868Z,999.10
2018-09-19T08:34:09.856Z,999.06
2018-09-19T08:35:09.848Z,999.09
2018-09-19T08:36:09.841Z,999.08
2018-09-19T08:37:09.827Z,999.11
2018-09-19T08:38:09.855Z,999.07
2018-09-19T08:39:09.808Z,999.06
2018-09-19T08:40:09.794Z,999.03
2018-09-19T08:41:09.772Z,999.08
2018-09-19T08:42:09.765Z,999.04
2018-09-19T08:43:09.752Z,999.03
2018-09-19T08:44:09.808Z,999.07
2018-09-19T08:45:09.729Z,999.07
2018-09-19T08:46:09.730Z,999.05
2018-09-19T08:47:09.712Z,999.02
2018-09-19T08:48:09.730Z,998.97
2018-09-19T08:49:09.724Z,999.01
2018-09-19T08:50:09.709Z,998.92
2018-09-19T08:51:09.673Z,998.93
2018-09-19T08:52:09.663Z,998.95
2018-09-19T08:53:09.638Z,998.96
2018-09-19T08:54:09.634Z,998.97
2018-09-19T08:55:09.618Z,998.92
2018-09-19T08:56:09.645Z,998.96
2018-09-19T08:57:09.685Z,998.97
2018-09-19T08:58:09.603Z,998.96
2018-09-19T08:59:09.599Z,998.99
2018-09-19T09:00:09.559Z,999.02
2018-09-19T09:01:09.558Z,998.93
2018-09-19T09:02:10.215Z,998.96
2018-09-19T09:03:09.531Z,998.96
2018-09-19T09:04:09.513Z,998.99
2018-09-19T09:05:09.528Z,999.01
2018-09-19T09:06:09.501Z,999.00
2018-09-19T09:07:09.482Z,998.97
2018-09-19T09:08:09.553Z,999.05
2018-09-19T09:09:09.461Z,998.93
2018-09-19T09:10:09.445Z,998.96
2018-09-19T09:11:09.446Z,998.97
2018-09-19T09:12:09.525Z,998.94
2018-09-19T09:13:09.416Z,998.97
2018-09-19T09:14:09.437Z,998.93
2018-09-19T09:15:09.390Z,998.93
2018-09-19T09:16:09.383Z,998.89
2018-09-19T09:17:09.381Z,998.92
2018-09-19T09:18:09.364Z,998.80
2018-09-19T09:19:09.352Z,998.81
2018-09-19T09:20:09.379Z,998.76
2018-09-19T09:21:09.322Z,998.76
2018-09-19T09:22:09.323Z,998.73
2018-09-19T09:23:09.298Z,998.70
2018-09-19T09:24:09.292Z,998.73
2018-09-19T09:25:09.289Z,998.76
2018-09-19T09:26:09.363Z,998.73
2018-09-19T09:27:09.406Z,998.74
2018-09-19T09:28:09.241Z,998.78
2018-09-19T09:29:09.244Z,998.74
2018-09-19T09:30:09.225Z,998.71
2018-09-19T09:31:09.333Z,998.69
2018-09-19T09:32:09.236Z,998.79
2018-09-19T09:33:09.186Z,998.79
2018-09-19T09:34:09.302Z,998.79
2018-09-19T09:35:09.177Z,998.81
2018-09-19T09:36:09.168Z,998.77
2018-09-19T09:37:09.145Z,998.78
2018-09-19T09:38:09.183Z,998.78
2018-09-19T09:39:09.126Z,998.78
2018-09-19T09:40:09.131Z,998.70
2018-09-19T09:41:09.106Z,998.67
2018-09-19T09:42:09.164Z,998.69
2018-09-19T09:43:09.081Z,998.69
2018-09-19T09:44:09.112Z,998.66
2018-09-19T09:45:09.092Z,998.67
2018-09-19T09:46:09.139Z,998.68
2018-09-19T09:47:09.037Z,998.64
2018-09-19T09:48:09.023Z,998.69
2018-09-19T09:49:09.024Z,998.69
2018-09-19T09:50:09.055Z,998.70
2018-09-19T09:51:08.993Z,998.60
2018-09-19T09:52:08.982Z,998.64
2018-09-19T09:53:08.999Z,998.65
2018-09-19T09:54:08.958Z,998.69
2018-09-19T09:55:09.024Z,998.63
2018-09-19T09:56:08.974Z,998.63
2018-09-19T09:57:08.928Z,998.60
2018-09-19T09:58:08.916Z,998.58
2018-09-19T09:59:08.936Z,998.55
2018-09-19T10:00:08.893Z,998.55
2018-09-19T10:01:08.940Z,998.61
2018-09-19T10:02:08.910Z,998.59
2018-09-19T10:03:08.875Z,998.61
2018-09-19T10:04:08.851Z,998.62
2018-09-19T10:05:08.855Z,998.55
2018-09-19T10:06:08.854Z,998.56
2018-09-19T10:07:08.828Z,998.60
2018-09-19T10:08:08.855Z,998.58
2018-09-19T10:09:08.807Z,998.56
2018-09-19T10:10:08.799Z,998.59
2018-09-19T10:11:08.786Z,998.51
2018-09-19T10:12:08.764Z,998.62
2018-09-19T10:13:08.753Z,998.57
2018-09-19T10:14:08.793Z,998.53
2018-09-19T10:15:08.763Z,998.52
2018-09-19T10:16:08.726Z,998.55
2018-09-19T10:17:08.722Z,998.56
2018-09-19T10:18:08.710Z,998.50
2018-09-19T10:19:08.696Z,998.47
2018-09-19T10:20:08.717Z,998.48
2018-09-19T10:21:08.688Z,998.54
2018-09-19T10:22:08.666Z,998.65
2018-09-19T10:23:08.655Z,998.54
2018-09-19T10:24:08.641Z,998.53
2018-09-19T10:25:08.641Z,998.51
2018-09-19T10:26:08.644Z,998.46
2018-09-19T10:27:08.603Z,998.49
2018-09-19T10:28:08.637Z,998.44
2018-09-19T10:29:08.590Z,998.42
2018-09-19T10:30:08.575Z,998.42
2018-09-19T10:31:08.565Z,998.40
2018-09-19T10:32:08.588Z,998.48
2018-09-19T10:33:08.542Z,998.42
2018-09-19T10:34:08.575Z,998.46
2018-09-19T10:35:08.524Z,998.44
2018-09-19T10:36:08.512Z,998.45
2018-09-19T10:37:08.498Z,998.42
2018-09-19T10:38:08.552Z,998.45
2018-09-19T10:39:08.484Z,998.55
2018-09-19T10:40:08.471Z,998.49
2018-09-19T10:41:08.452Z,998.46
2018-09-19T10:42:08.460Z,998.51
2018-09-19T10:43:08.437Z,998.54
2018-09-19T10:44:08.483Z,998.43
2018-09-19T10:45:08.410Z,998.49
2018-09-19T10:46:08.394Z,998.44
2018-09-19T10:47:08.394Z,998.48
2018-09-19T10:48:08.387Z,998.37
2018-09-19T10:49:08.384Z,998.46
2018-09-19T10:50:08.393Z,998.44
2018-09-19T10:51:08.343Z,998.43
2018-09-19T10:52:08.364Z,998.50
2018-09-19T10:53:08.328Z,998.49
2018-09-19T10:54:08.312Z,998.40
2018-09-19T10:55:08.345Z,998.42
2018-09-19T10:56:08.325Z,998.33
2018-09-19T10:57:08.289Z,998.41
2018-09-19T10:58:08.271Z,998.30
2018-09-19T10:59:08.261Z,998.43
2018-09-19T11:00:08.254Z,998.36
2018-09-19T11:01:08.241Z,998.31
2018-09-19T11:02:08.279Z,998.40
2018-09-19T11:03:08.223Z,998.38
2018-09-19T11:04:08.210Z,998.34
2018-09-19T11:05:08.227Z,998.35
2018-09-19T11:06:08.189Z,998.33
2018-09-19T11:07:08.167Z,998.30
2018-09-19T11:08:08.203Z,998.29
2018-09-19T11:09:08.145Z,998.32
2018-09-19T11:10:08.144Z,998.33
2018-09-19T11:11:08.128Z,998.41
2018-09-19T11:12:08.138Z,998.31
2018-09-19T11:13:08.101Z,998.32
2018-09-19T11:14:08.130Z,998.34
2018-09-19T11:15:08.082Z,998.40
2018-09-19T11:16:08.070Z,998.35
2018-09-19T11:17:08.111Z,998.39
2018-09-19T11:18:08.059Z,998.34
2018-09-19T11:19:08.040Z,998.30
2018-09-19T11:20:08.107Z,998.25
2018-09-19T11:21:08.017Z,998.24
2018-09-19T11:22:08.008Z,998.24
2018-09-19T11:23:07.995Z,998.19
2018-09-19T11:24:08.009Z,998.27
2018-09-19T11:25:07.977Z,998.19
2018-09-19T11:26:08.007Z,998.23
2018-09-19T11:27:07.948Z,998.25
2018-09-19T11:28:07.936Z,998.24
2018-09-19T11:29:07.924Z,998.22
2018-09-19T11:30:07.948Z,998.29
2018-09-19T11:31:07.924Z,998.34
2018-09-19T11:32:07.931Z,998.28
2018-09-19T11:33:07.887Z,998.28
2018-09-19T11:34:07.875Z,998.33
2018-09-19T11:35:07.862Z,998.28
2018-09-19T11:36:07.880Z,998.30
2018-09-19T11:37:07.847Z,998.24
2018-09-19T11:38:07.867Z,998.29
2018-09-19T11:39:07.839Z,998.27
2018-09-19T11:40:07.814Z,998.29
2018-09-19T11:41:07.803Z,998.34
2018-09-19T11:42:07.794Z,998.33
2018-09-19T11:43:07.871Z,998.31
2018-09-19T11:44:07.810Z,998.26
2018-09-19T11:45:07.756Z,998.24
2018-09-19T11:46:07.752Z,998.23
2018-09-19T11:47:07.732Z,998.26
2018-09-19T11:48:07.749Z,998.31
2018-09-19T11:49:07.719Z,998.44
2018-09-19T11:50:07.736Z,998.40
2018-09-19T11:51:07.702Z,998.36
2018-09-19T11:52:07.685Z,998.36
2018-09-19T11:53:07.674Z,998.34
2018-09-19T11:54:07.669Z,998.37
2018-09-19T11:55:07.653Z,998.41
2018-09-19T11:56:07.675Z,998.36
2018-09-19T11:57:07.628Z,998.41
2018-09-19T11:58:07.696Z,998.47
2018-09-19T11:59:07.677Z,998.45
2018-09-19T12:00:07.619Z,998.51
2018-09-19T12:01:07.589Z,998.39
2018-09-19T12:02:07.627Z,998.47
2018-09-19T12:03:07.563Z,998.38
2018-09-19T12:04:07.552Z,998.56
2018-09-19T12:05:07.538Z,998.41
2018-09-19T12:06:07.553Z,998.47
2018-09-19T12:07:07.529Z,998.47
2018-09-19T12:08:07.545Z,998.36
2018-09-19T12:09:07.496Z,998.26
2018-09-19T12:10:07.485Z,998.26
2018-09-19T12:11:07.476Z,998.21
2018-09-19T12:12:07.463Z,998.27
2018-09-19T12:13:07.519Z,998.38
2018-09-19T12:14:07.484Z,998.43
2018-09-19T12:15:07.432Z,998.42
2018-09-19T12:16:07.422Z,998.44
2018-09-19T12:17:07.410Z,998.31
2018-09-19T12:18:07.409Z,998.35
2018-09-19T12:19:07.438Z,998.42
2018-09-19T12:20:07.421Z,998.19
2018-09-19T12:21:07.378Z,998.16
2018-09-19T12:22:07.357Z,998.21
2018-09-19T12:23:07.355Z,998.21
2018-09-19T12:24:07.346Z,998.39
2018-09-19T12:25:07.337Z,998.34
2018-09-19T12:26:07.387Z,998.37
2018-09-19T12:27:07.311Z,998.40
2018-09-19T12:28:07.296Z,998.20